createdAt,value
2018-12-19T00:00:26.760Z,22.17
2018-12-19T00:03:00.682Z,18.90
2018-12-19T00:05:34.693Z,19.43
2018-12-19T00:08:08.515Z,19.90
2018-12-19T00:10:42.606Z,19.50
2018-12-19T00:13:18.595Z,19.63
2018-12-19T00:15:52.664Z,19.87
2018-12-19T00:18:26.985Z,20.17
2018-12-19T00:21:01.398Z,18.03
2018-12-19T00:23:35.690Z,17.60
2018-12-19T00:26:09.854Z,18.80
2018-12-19T00:28:43.974Z,18.30
2018-12-19T00:31:17.713Z,18.43
2018-12-19T00:33:51.517Z,18.53
2018-12-19T00:36:25.103Z,19.43
2018-12-19T00:38:59.098Z,18.30
2018-12-19T00:41:33.069Z,17.77
2018-12-19T00:44:06.867Z,17.60
2018-12-19T00:46:40.769Z,18.03
2018-12-19T00:49:14.510Z,19.23
2018-12-19T00:54:26.184Z,19.20
2018-12-19T00:57:00.024Z,20.33
2018-12-19T00:59:33.997Z,19.00
2018-12-19T01:02:08.020Z,17.50
2018-12-19T01:04:47.965Z,18.73
2018-12-19T01:07:17.886Z,18.90
2018-12-19T01:09:52.157Z,18.57
2018-12-19T01:12:26.586Z,18.10
2018-12-19T01:15:01.228Z,18.07
2018-12-19T01:17:35.309Z,17.87
2018-12-19T01:20:10.037Z,18.50
2018-12-19T01:22:44.119Z,18.23
2018-12-19T01:25:18.105Z,18.73
2018-12-19T01:27:58.055Z,17.57
2018-12-19T01:31:37.418Z,16.53
2018-12-19T01:37:23.376Z,18.00
2018-12-19T01:39:57.950Z,17.07
2018-12-19T01:42:32.965Z,17.67
2018-12-19T01:45:07.699Z,17.90
2018-12-19T01:47:42.007Z,18.00
2018-12-19T01:50:16.109Z,17.33
2018-12-19T01:52:50.341Z,17.73
2018-12-19T01:55:25.042Z,16.73
2018-12-19T01:58:01.432Z,16.80
2018-12-19T02:00:35.378Z,18.00
2018-12-19T02:03:09.582Z,17.97
2018-12-19T02:05:43.534Z,19.90
2018-12-19T02:08:29.253Z,17.57
2018-12-19T02:11:11.597Z,18.27
2018-12-19T02:13:46.028Z,18.60
2018-12-19T02:16:36.015Z,18.63
2018-12-19T02:19:10.237Z,17.53
2018-12-19T02:21:44.019Z,18.33
2018-12-19T02:24:18.234Z,19.40
2018-12-19T02:26:53.347Z,18.50
2018-12-19T02:29:28.194Z,18.23
2018-12-19T02:32:06.502Z,18.43
2018-12-19T02:34:40.382Z,18.87
2018-12-19T02:37:14.279Z,17.80
2018-12-19T02:39:48.646Z,18.43
2018-12-19T02:42:23.055Z,18.73
2018-12-19T02:44:57.161Z,18.87
2018-12-19T02:47:31.646Z,19.23
2018-12-19T02:50:06.378Z,17.77
2018-12-19T02:52:43.030Z,18.03
2018-12-19T02:57:55.122Z,18.73
2018-12-19T03:00:29.008Z,18.23
2018-12-19T03:03:07.750Z,17.60
2018-12-19T03:05:43.235Z,18.50
2018-12-19T03:08:18.274Z,17.27
2018-12-19T03:10:52.223Z,17.17
2018-12-19T03:13:28.074Z,18.00
2018-12-19T03:18:48.730Z,17.50
2018-12-19T03:21:23.226Z,17.30
2018-12-19T03:23:57.353Z,17.90
2018-12-19T03:26:33.890Z,17.30
2018-12-19T03:29:07.942Z,18.07
2018-12-19T03:31:42.601Z,17.63
2018-12-19T03:34:17.150Z,17.97
2018-12-19T03:36:51.092Z,18.07
2018-12-19T03:39:25.308Z,17.90
2018-12-19T03:42:00.287Z,17.60
2018-12-19T03:44:34.891Z,17.57
2018-12-19T03:47:09.508Z,17.00
2018-12-19T03:49:44.319Z,17.80
2018-12-19T03:52:18.791Z,17.10
2018-12-19T03:54:53.270Z,16.60
2018-12-19T03:57:27.370Z,16.97
2018-12-19T04:00:01.796Z,15.70
2018-12-19T04:02:35.821Z,16.63
2018-12-19T04:05:10.762Z,16.87
2018-12-19T04:07:44.796Z,17.80
2018-12-19T04:10:18.791Z,15.17
2018-12-19T04:12:52.727Z,15.83
2018-12-19T04:15:26.617Z,15.23
2018-12-19T04:18:01.212Z,15.90
2018-12-19T04:20:35.314Z,15.23
2018-12-19T04:23:12.816Z,15.27
2018-12-19T04:25:46.905Z,15.87
2018-12-19T04:28:24.015Z,14.07
2018-12-19T04:33:43.975Z,14.53
2018-12-19T04:36:24.221Z,13.47
2018-12-19T04:39:00.258Z,13.03
2018-12-19T04:44:15.408Z,12.80
2018-12-19T04:46:49.636Z,13.10
2018-12-19T04:49:28.423Z,13.47
2018-12-19T04:52:02.600Z,12.93
2018-12-19T04:57:16.951Z,12.90
2018-12-19T04:59:51.042Z,11.90
2018-12-19T05:02:25.122Z,11.37
2018-12-19T05:04:59.345Z,10.53
2018-12-19T05:07:34.356Z,11.63
2018-12-19T05:10:12.422Z,11.47
2018-12-19T05:12:47.087Z,11.80
2018-12-19T05:15:21.672Z,11.27
2018-12-19T05:17:55.652Z,11.90
2018-12-19T05:20:38.356Z,12.37
2018-12-19T05:23:12.314Z,11.13
2018-12-19T05:25:46.614Z,11.17
2018-12-19T05:28:20.728Z,11.20
2018-12-19T05:30:55.058Z,10.77
2018-12-19T05:33:29.444Z,11.47
2018-12-19T05:36:03.629Z,11.77
2018-12-19T05:38:40.452Z,10.77
2018-12-19T05:41:16.178Z,11.33
2018-12-19T05:43:50.676Z,10.93
2018-12-19T05:46:24.646Z,11.20
2018-12-19T05:51:39.814Z,11.13
2018-12-19T05:54:13.889Z,10.90
2018-12-19T05:56:47.869Z,11.00
2018-12-19T05:59:21.635Z,10.77
2018-12-19T06:01:55.670Z,10.73
2018-12-19T06:04:29.645Z,10.80
2018-12-19T06:07:03.564Z,10.50
2018-12-19T06:09:37.650Z,11.40
2018-12-19T06:12:11.642Z,10.97
2018-12-19T06:14:45.628Z,10.63
2018-12-19T06:17:19.569Z,10.73
2018-12-19T06:19:54.361Z,11.53
2018-12-19T06:22:28.266Z,10.93
2018-12-19T06:25:02.491Z,10.93
2018-12-19T06:27:43.429Z,11.30
2018-12-19T06:30:19.090Z,10.73
2018-12-19T06:32:53.676Z,11.10
2018-12-19T06:35:39.541Z,11.23
2018-12-19T06:38:13.946Z,12.57
2018-12-19T06:40:47.944Z,11.90
2018-12-19T06:43:22.066Z,12.03
2018-12-19T06:45:56.187Z,13.50
2018-12-19T06:48:30.478Z,24.87
2018-12-19T06:51:04.279Z,21.10
2018-12-19T06:53:38.388Z,15.73
2018-12-19T06:58:58.121Z,12.70
2018-12-19T07:01:32.225Z,13.23
2018-12-19T07:04:06.511Z,12.27
2018-12-19T07:06:40.709Z,11.90
2018-12-19T07:09:15.679Z,11.53
2018-12-19T07:11:49.749Z,12.00
2018-12-19T07:14:24.095Z,12.20
2018-12-19T07:16:59.138Z,13.00
2018-12-19T07:19:33.553Z,12.20
2018-12-19T07:22:08.311Z,12.53
2018-12-19T07:24:51.971Z,12.57
2018-12-19T07:27:26.683Z,12.10
2018-12-19T07:32:40.594Z,12.00
2018-12-19T07:35:20.499Z,13.07
2018-12-19T07:37:57.832Z,12.37
2018-12-19T07:40:45.672Z,12.40
2018-12-19T07:43:16.904Z,12.70
2018-12-19T07:45:51.493Z,12.70
2018-12-19T07:48:27.177Z,12.57
2018-12-19T07:53:55.975Z,13.50
2018-12-19T07:56:30.498Z,12.77
2018-12-19T08:02:08.659Z,12.30
2018-12-19T08:04:44.270Z,11.63
2018-12-19T08:07:19.038Z,11.80
2018-12-19T08:12:44.232Z,11.73
2018-12-19T08:15:22.000Z,11.27
2018-12-19T08:17:56.624Z,11.90
2018-12-19T08:20:35.728Z,11.83
2018-12-19T08:23:11.035Z,11.50
2018-12-19T08:25:49.200Z,11.40
2018-12-19T08:28:34.630Z,12.07
2018-12-19T08:31:09.379Z,12.00
2018-12-19T08:33:56.683Z,12.40
2018-12-19T08:36:32.316Z,12.03
2018-12-19T08:41:29.951Z,11.27
2018-12-19T08:44:35.766Z,12.23
2018-12-19T08:52:50.819Z,12.80
2018-12-19T09:01:15.588Z,12.47
2018-12-19T09:06:56.867Z,12.80
2018-12-19T09:12:24.129Z,11.47
2018-12-19T09:18:20.257Z,12.60
2018-12-19T09:20:56.104Z,12.03
2018-12-19T09:23:40.162Z,11.70
2018-12-19T09:29:11.295Z,11.30
2018-12-19T09:31:49.811Z,10.33
2018-12-19T09:34:33.134Z,11.30
2018-12-19T09:37:11.646Z,11.00
2018-12-19T09:39:47.510Z,11.40
2018-12-19T09:42:34.203Z,11.10
2018-12-19T09:45:19.739Z,12.23
2018-12-19T09:47:57.864Z,10.20
2018-12-19T09:50:39.857Z,11.67
2018-12-19T09:53:19.832Z,9.87
2018-12-19T09:55:54.659Z,10.63
2018-12-19T09:58:36.240Z,10.50
2018-12-19T10:01:10.716Z,9.37
2018-12-19T10:03:46.556Z,9.20
2018-12-19T10:06:24.274Z,10.57
2018-12-19T10:08:59.038Z,12.37
2018-12-19T10:14:15.803Z,10.07
2018-12-19T10:16:57.271Z,9.50
2018-12-19T10:19:35.979Z,10.43
2018-12-19T10:22:21.187Z,10.10
2018-12-19T10:25:08.957Z,9.40
2018-12-19T10:27:44.401Z,9.53
2018-12-19T10:30:24.449Z,10.03
2018-12-19T10:32:59.801Z,9.30
2018-12-19T10:35:41.579Z,9.40
2018-12-19T10:38:15.933Z,9.20
2018-12-19T10:40:50.808Z,9.23
2018-12-19T10:43:25.775Z,9.47
2018-12-19T10:45:59.713Z,9.00
2018-12-19T10:48:33.628Z,8.73
2018-12-19T10:51:07.853Z,9.40
2018-12-19T10:53:42.056Z,9.67
2018-12-19T10:56:15.873Z,9.70
2018-12-19T10:58:50.630Z,8.70
2018-12-19T11:01:24.997Z,9.03
2018-12-19T11:03:58.831Z,8.80
2018-12-19T11:06:33.076Z,8.77
2018-12-19T11:09:08.644Z,8.83
2018-12-19T11:11:46.749Z,8.47
2018-12-19T11:14:21.605Z,8.80
2018-12-19T11:16:56.194Z,7.83
2018-12-19T11:22:52.113Z,7.97
2018-12-19T11:28:40.955Z,7.77
2018-12-19T11:34:08.882Z,8.17
2018-12-19T11:36:43.572Z,8.17
2018-12-19T11:39:18.922Z,7.47
2018-12-19T11:41:52.746Z,7.73
2018-12-19T11:44:27.371Z,7.77
2018-12-19T11:49:45.577Z,7.83
2018-12-19T11:52:20.020Z,8.93
2018-12-19T11:57:07.508Z,8.77
2018-12-19T11:59:42.318Z,8.13
2018-12-19T12:05:23.717Z,8.80
2018-12-19T12:07:57.649Z,9.07
2018-12-19T12:10:32.190Z,9.13
2018-12-19T12:13:06.400Z,8.70
2018-12-19T12:15:41.796Z,8.53
2018-12-19T12:18:15.972Z,8.27
2018-12-19T12:20:51.109Z,7.93
2018-12-19T12:32:03.659Z,8.20
2018-12-19T12:34:38.588Z,8.13
2018-12-19T12:42:02.492Z,8.30
2018-12-19T12:50:29.603Z,7.90
2018-12-19T12:53:25.002Z,7.27
2018-12-19T12:56:01.640Z,7.80
2018-12-19T12:58:41.419Z,8.40
2018-12-19T13:01:19.501Z,7.60
2018-12-19T13:07:19.225Z,7.53
2018-12-19T13:13:04.012Z,7.50
2018-12-19T13:15:41.270Z,9.70
2018-12-19T13:18:16.540Z,7.60
2018-12-19T13:20:51.011Z,7.70
2018-12-19T13:23:26.883Z,7.17
2018-12-19T13:26:02.782Z,7.37
2018-12-19T13:28:37.261Z,7.40
2018-12-19T13:31:12.607Z,8.83
2018-12-19T13:33:47.130Z,8.73
2018-12-19T13:36:22.265Z,7.13
2018-12-19T13:38:57.001Z,7.50
2018-12-19T13:41:31.829Z,7.03
2018-12-19T13:44:06.347Z,9.37
2018-12-19T13:46:40.942Z,7.33
2018-12-19T13:49:16.402Z,7.40
2018-12-19T13:51:57.288Z,6.97
2018-12-19T13:54:46.822Z,7.90
2018-12-19T13:57:21.481Z,7.83
2018-12-19T13:59:56.107Z,7.90
2018-12-19T14:02:37.592Z,7.67
2018-12-19T14:05:13.022Z,7.53
2018-12-19T14:07:47.536Z,7.60
2018-12-19T14:10:23.001Z,8.23
2018-12-19T14:12:57.907Z,7.00
2018-12-19T14:15:32.868Z,7.30
2018-12-19T14:18:13.223Z,6.40
2018-12-19T14:20:51.922Z,7.17
2018-12-19T14:23:27.801Z,6.97
2018-12-19T14:26:07.743Z,6.57
2018-12-19T14:28:43.187Z,7.73
2018-12-19T14:34:15.574Z,6.20
2018-12-19T14:37:04.005Z,7.20
2018-12-19T14:39:38.135Z,6.33
2018-12-19T14:45:18.846Z,6.43
2018-12-19T14:47:53.527Z,6.63
2018-12-19T14:50:27.736Z,6.73
2018-12-19T14:53:01.779Z,6.17
2018-12-19T14:55:39.300Z,6.80
2018-12-19T14:58:13.556Z,6.43
2018-12-19T15:00:47.441Z,5.90
2018-12-19T15:12:56.585Z,12.53
2018-12-19T15:18:24.630Z,8.57
2018-12-19T15:20:59.500Z,7.33
2018-12-19T15:23:49.106Z,6.17
2018-12-19T15:26:25.534Z,7.33
2018-12-19T15:31:52.837Z,7.17
2018-12-19T15:34:28.407Z,8.00
2018-12-19T15:38:17.747Z,8.23
2018-12-19T15:40:55.869Z,7.73
2018-12-19T15:46:11.891Z,8.10
2018-12-19T15:48:47.937Z,7.20
2018-12-19T15:51:23.309Z,7.63
2018-12-19T15:54:13.177Z,7.07
2018-12-19T15:56:49.857Z,7.33
2018-12-19T15:59:31.724Z,7.40
2018-12-19T16:02:41.855Z,7.77
2018-12-19T16:05:16.438Z,9.10
2018-12-19T16:07:51.006Z,8.00
2018-12-19T16:13:17.023Z,7.27
2018-12-19T16:15:51.423Z,7.40
2018-12-19T16:18:25.972Z,7.43
2018-12-19T16:21:00.315Z,7.77
2018-12-19T16:23:34.985Z,7.80
2018-12-19T16:26:09.370Z,7.60
2018-12-19T16:28:43.681Z,7.47
2018-12-19T16:31:19.215Z,9.27
2018-12-19T16:33:54.858Z,8.20
2018-12-19T16:42:34.252Z,8.30
2018-12-19T16:45:09.958Z,8.80
2018-12-19T16:53:58.125Z,8.40
2018-12-19T16:56:32.731Z,8.80
2018-12-19T16:59:18.609Z,8.77
2018-12-19T17:02:01.753Z,8.50
2018-12-19T17:04:36.148Z,9.43
2018-12-19T17:07:23.070Z,9.13
2018-12-19T17:10:56.769Z,9.80
2018-12-19T17:13:36.123Z,9.63
2018-12-19T17:16:20.204Z,9.27
2018-12-19T17:18:57.427Z,10.10
2018-12-19T17:22:42.957Z,9.80
2018-12-19T17:28:29.076Z,10.10
2018-12-19T17:31:04.911Z,9.93
2018-12-19T17:36:19.478Z,9.90
2018-12-19T17:40:33.203Z,10.57
2018-12-19T17:43:07.657Z,10.57
2018-12-19T17:45:46.874Z,11.03
2018-12-19T17:48:21.185Z,11.27
2018-12-19T17:50:56.036Z,11.80
2018-12-19T17:53:32.052Z,11.87
2018-12-19T17:56:11.313Z,11.23
2018-12-19T17:58:45.488Z,11.73
2018-12-19T18:01:20.782Z,11.97
2018-12-19T18:03:55.279Z,11.90
2018-12-19T18:06:30.772Z,11.60
2018-12-19T18:09:07.053Z,11.80
2018-12-19T18:11:42.382Z,11.60
2018-12-19T18:14:17.722Z,11.80
2018-12-19T18:16:52.443Z,12.43
2018-12-19T18:19:27.056Z,11.77
2018-12-19T18:22:01.780Z,11.90
2018-12-19T18:24:39.760Z,11.67
2018-12-19T18:27:14.483Z,12.17
2018-12-19T18:30:09.003Z,11.73
2018-12-19T18:32:43.269Z,12.27
2018-12-19T18:35:19.366Z,11.77
2018-12-19T18:37:53.408Z,11.53
2018-12-19T18:40:28.606Z,13.23
2018-12-19T18:43:05.627Z,12.70
2018-12-19T18:45:41.865Z,12.23
2018-12-19T18:48:17.411Z,12.33
2018-12-19T18:50:52.854Z,11.80
2018-12-19T18:53:27.335Z,12.70
2018-12-19T18:56:01.856Z,12.83
2018-12-19T18:58:37.620Z,12.78
2018-12-19T19:01:12.572Z,12.07
2018-12-19T19:03:48.341Z,11.83
2018-12-19T19:06:24.993Z,12.23
2018-12-19T19:09:02.397Z,13.43
2018-12-19T19:14:38.458Z,12.00
2018-12-19T19:17:25.131Z,11.87
2018-12-19T19:20:07.877Z,12.50
2018-12-19T19:25:35.531Z,11.83
2018-12-19T19:28:10.271Z,12.53
2018-12-19T19:30:45.847Z,11.80
2018-12-19T19:33:21.554Z,13.00
2018-12-19T19:37:04.792Z,12.27
2018-12-19T19:39:47.568Z,12.17
2018-12-19T19:42:22.151Z,12.63
2018-12-19T19:44:57.720Z,13.13
2018-12-19T19:47:33.457Z,12.37
2018-12-19T19:50:08.925Z,12.37
2018-12-19T19:52:43.768Z,13.03
2018-12-19T19:55:19.090Z,13.43
2018-12-19T19:58:56.941Z,13.33
2018-12-19T20:01:37.929Z,12.70
2018-12-19T20:07:20.052Z,13.70
2018-12-19T20:11:16.444Z,13.40
2018-12-19T20:22:28.796Z,14.60
2018-12-19T20:27:56.081Z,14.73
2018-12-19T20:30:30.876Z,15.13
2018-12-19T20:33:05.566Z,14.77
2018-12-19T20:35:40.215Z,16.03
2018-12-19T20:38:15.809Z,14.17
2018-12-19T20:41:11.879Z,14.83
2018-12-19T20:43:46.302Z,15.20
2018-12-19T20:46:21.618Z,16.87
2018-12-19T20:48:56.665Z,14.63
2018-12-19T20:51:31.230Z,15.30
2018-12-19T20:54:12.885Z,15.37
2018-12-19T20:56:47.097Z,15.13
2018-12-19T20:59:24.521Z,15.67
2018-12-19T21:01:59.095Z,14.17
2018-12-19T21:04:33.952Z,15.60
2018-12-19T21:07:09.240Z,14.83
2018-12-19T21:09:47.500Z,16.47
2018-12-19T21:12:21.790Z,15.60
2018-12-19T21:14:55.864Z,15.40
2018-12-19T21:17:35.551Z,14.17
2018-12-19T21:20:09.691Z,16.00
2018-12-19T21:22:44.890Z,16.70
2018-12-19T21:25:22.600Z,15.67
2018-12-19T21:32:02.164Z,14.80
2018-12-19T21:34:43.231Z,17.07
2018-12-19T21:37:20.798Z,16.40
2018-12-19T21:40:00.189Z,16.83
2018-12-19T21:42:35.375Z,17.73
2018-12-19T21:48:11.041Z,17.63
2018-12-19T21:50:48.904Z,18.33
2018-12-19T21:53:25.330Z,18.30
2018-12-19T21:56:00.422Z,18.67
2018-12-19T21:58:59.202Z,18.90
2018-12-19T22:01:35.367Z,17.67
2018-12-19T22:04:10.717Z,19.33
2018-12-19T22:06:45.533Z,20.53
2018-12-19T22:12:36.027Z,20.90
2018-12-19T22:15:14.748Z,21.43
2018-12-19T22:17:55.442Z,21.43
2018-12-19T22:26:35.556Z,22.47
2018-12-19T22:34:35.709Z,23.13
2018-12-19T22:40:44.717Z,24.10
2018-12-19T22:46:33.138Z,23.57
2018-12-19T22:49:14.175Z,23.47
2018-12-19T23:00:35.875Z,25.30
2018-12-19T23:03:11.848Z,26.80
2018-12-19T23:08:56.574Z,24.17
2018-12-19T23:11:36.675Z,24.43
2018-12-19T23:14:15.453Z,25.00
2018-12-19T23:16:48.400Z,26.60
2018-12-19T23:19:22.251Z,24.83
2018-12-19T23:21:56.343Z,25.27
2018-12-19T23:24:30.302Z,25.53
2018-12-19T23:27:04.414Z,24.73
2018-12-19T23:29:38.297Z,24.30
2018-12-19T23:32:15.377Z,23.93
2018-12-19T23:34:49.483Z,24.07
2018-12-19T23:37:24.729Z,24.43
2018-12-19T23:40:26.765Z,23.30
2018-12-19T23:43:02.622Z,24.17
2018-12-19T23:45:38.128Z,24.43
2018-12-19T23:48:13.080Z,23.57
2018-12-19T23:50:47.350Z,24.00
2018-12-19T23:53:21.989Z,26.07
2018-12-19T23:55:58.690Z,22.40
2018-12-19T23:58:35.652Z,23.70
